sensor_id;sensor_type;location;lat;lon;timestamp;temperature;humidity
18712;DHT22;9485;49.386;8.674;2023-06-24T00:00:40;22.60;52.80
18712;DHT22;9485;49.386;8.674;2023-06-24T00:06:02;22.50;52.80
18712;DHT22;9485;49.386;8.674;2023-06-24T00:11:24;22.50;52.80
18712;DHT22;9485;49.386;8.674;2023-06-24T00:16:45;22.40;53.10
18712;DHT22;9485;49.386;8.674;2023-06-24T00:22:08;22.40;53.10
18712;DHT22;9485;49.386;8.674;2023-06-24T00:27:29;22.30;53.20
18712;DHT22;9485;49.386;8.674;2023-06-24T00:32:50;22.20;53.40
18712;DHT22;9485;49.386;8.674;2023-06-24T00:38:11;22.10;53.50
18712;DHT22;9485;49.386;8.674;2023-06-24T00:43:34;22.00;53.50
18712;DHT22;9485;49.386;8.674;2023-06-24T00:48:56;22.00;53.90
18712;DHT22;9485;49.386;8.674;2023-06-24T00:54:18;21.90;53.80
18712;DHT22;9485;49.386;8.674;2023-06-24T00:59:41;21.80;53.90
18712;DHT22;9485;49.386;8.674;2023-06-24T01:05:04;21.80;54.20
18712;DHT22;9485;49.386;8.674;2023-06-24T01:10:27;21.70;54.20
18712;DHT22;9485;49.386;8.674;2023-06-24T01:15:50;21.70;54.30
18712;DHT22;9485;49.386;8.674;2023-06-24T01:21:15;21.60;54.50
18712;DHT22;9485;49.386;8.674;2023-06-24T01:33:03;21.50;55.20
18712;DHT22;9485;49.386;8.674;2023-06-24T01:38:34;21.50;55.00
18712;DHT22;9485;49.386;8.674;2023-06-24T01:43:58;21.40;55.00
18712;DHT22;9485;49.386;8.674;2023-06-24T01:49:22;21.40;54.90
18712;DHT22;9485;49.386;8.674;2023-06-24T01:54:47;21.40;55.10
18712;DHT22;9485;49.386;8.674;2023-06-24T02:00:11;21.40;55.10
18712;DHT22;9485;49.386;8.674;2023-06-24T02:05:53;21.30;55.30
18712;DHT22;9485;49.386;8.674;2023-06-24T02:11:17;21.30;55.40
18712;DHT22;9485;49.386;8.674;2023-06-24T02:16:40;21.20;55.90
18712;DHT22;9485;49.386;8.674;2023-06-24T02:22:05;21.20;55.40
18712;DHT22;9485;49.386;8.674;2023-06-24T02:27:29;21.20;55.50
18712;DHT22;9485;49.386;8.674;2023-06-24T02:32:50;21.10;55.50
18712;DHT22;9485;49.386;8.674;2023-06-24T02:38:12;21.10;55.60
18712;DHT22;9485;49.386;8.674;2023-06-24T02:43:34;21.00;55.70
18712;DHT22;9485;49.386;8.674;2023-06-24T02:48:56;20.90;55.70
18712;DHT22;9485;49.386;8.674;2023-06-24T02:54:20;20.90;55.90
18712;DHT22;9485;49.386;8.674;2023-06-24T03:00:08;20.80;56.00
18712;DHT22;9485;49.386;8.674;2023-06-24T03:05:51;20.80;56.00
18712;DHT22;9485;49.386;8.674;2023-06-24T03:11:15;20.80;56.10
18712;DHT22;9485;49.386;8.674;2023-06-24T03:16:37;20.80;56.30
18712;DHT22;9485;49.386;8.674;2023-06-24T03:22:04;20.70;56.30
18712;DHT22;9485;49.386;8.674;2023-06-24T03:27:28;20.70;56.40
18712;DHT22;9485;49.386;8.674;2023-06-24T03:32:50;20.70;56.60
18712;DHT22;9485;49.386;8.674;2023-06-24T03:38:12;20.70;56.60
18712;DHT22;9485;49.386;8.674;2023-06-24T03:43:35;20.60;56.70
18712;DHT22;9485;49.386;8.674;2023-06-24T03:48:56;20.60;57.50
18712;DHT22;9485;49.386;8.674;2023-06-24T03:54:16;20.60;56.90
18712;DHT22;9485;49.386;8.674;2023-06-24T03:59:39;20.60;57.00
18712;DHT22;9485;49.386;8.674;2023-06-24T04:04:59;20.60;57.30
18712;DHT22;9485;49.386;8.674;2023-06-24T04:10:20;20.60;57.30
18712;DHT22;9485;49.386;8.674;2023-06-24T04:15:42;20.70;57.50
18712;DHT22;9485;49.386;8.674;2023-06-24T04:21:02;20.70;57.70
18712;DHT22;9485;49.386;8.674;2023-06-24T04:26:24;20.80;57.60
18712;DHT22;9485;49.386;8.674;2023-06-24T04:31:46;20.80;57.80
18712;DHT22;9485;49.386;8.674;2023-06-24T04:37:07;20.90;58.00
18712;DHT22;9485;49.386;8.674;2023-06-24T04:42:28;20.90;57.90
18712;DHT22;9485;49.386;8.674;2023-06-24T04:47:51;21.00;58.00
18712;DHT22;9485;49.386;8.674;2023-06-24T04:53:12;21.10;58.20
18712;DHT22;9485;49.386;8.674;2023-06-24T04:58:33;21.10;58.10
18712;DHT22;9485;49.386;8.674;2023-06-24T05:03:55;21.20;58.20
18712;DHT22;9485;49.386;8.674;2023-06-24T05:09:18;21.30;58.50
18712;DHT22;9485;49.386;8.674;2023-06-24T05:14:38;21.40;58.60
18712;DHT22;9485;49.386;8.674;2023-06-24T05:20:02;21.50;58.40
18712;DHT22;9485;49.386;8.674;2023-06-24T05:25:24;21.70;58.60
18712;DHT22;9485;49.386;8.674;2023-06-24T05:30:45;21.80;58.40
18712;DHT22;9485;49.386;8.674;2023-06-24T05:36:07;21.90;58.40
18712;DHT22;9485;49.386;8.674;2023-06-24T05:41:29;22.10;58.40
18712;DHT22;9485;49.386;8.674;2023-06-24T05:46:50;22.20;58.20
18712;DHT22;9485;49.386;8.674;2023-06-24T05:52:13;22.40;58.10
18712;DHT22;9485;49.386;8.674;2023-06-24T05:57:35;22.60;57.90
18712;DHT22;9485;49.386;8.674;2023-06-24T06:02:56;22.70;57.80
18712;DHT22;9485;49.386;8.674;2023-06-24T06:08:19;22.90;57.50
18712;DHT22;9485;49.386;8.674;2023-06-24T06:13:40;23.10;57.50
18712;DHT22;9485;49.386;8.674;2023-06-24T06:19:01;23.30;57.40
18712;DHT22;9485;49.386;8.674;2023-06-24T06:24:23;23.40;57.20
18712;DHT22;9485;49.386;8.674;2023-06-24T06:29:44;23.60;57.00
18712;DHT22;9485;49.386;8.674;2023-06-24T06:35:05;23.70;56.80
18712;DHT22;9485;49.386;8.674;2023-06-24T06:40:28;23.90;56.60
18712;DHT22;9485;49.386;8.674;2023-06-24T06:45:49;24.00;56.40
18712;DHT22;9485;49.386;8.674;2023-06-24T06:51:10;24.20;56.20
18712;DHT22;9485;49.386;8.674;2023-06-24T06:56:34;24.40;55.90
18712;DHT22;9485;49.386;8.674;2023-06-24T07:01:56;24.50;55.70
18712;DHT22;9485;49.386;8.674;2023-06-24T07:07:17;24.90;55.50
18712;DHT22;9485;49.386;8.674;2023-06-24T07:12:39;25.00;55.30
18712;DHT22;9485;49.386;8.674;2023-06-24T07:18:00;25.20;55.40
18712;DHT22;9485;49.386;8.674;2023-06-24T07:23:23;25.50;55.50
18712;DHT22;9485;49.386;8.674;2023-06-24T07:28:46;25.90;55.10
18712;DHT22;9485;49.386;8.674;2023-06-24T07:34:08;26.40;55.10
18712;DHT22;9485;49.386;8.674;2023-06-24T07:39:29;27.30;56.30
18712;DHT22;9485;49.386;8.674;2023-06-24T07:44:51;28.50;56.20
18712;DHT22;9485;49.386;8.674;2023-06-24T07:50:12;29.90;55.20
18712;DHT22;9485;49.386;8.674;2023-06-24T07:55:34;31.30;54.60
18712;DHT22;9485;49.386;8.674;2023-06-24T08:00:56;32.70;52.60
18712;DHT22;9485;49.386;8.674;2023-06-24T08:06:18;33.80;50.50
18712;DHT22;9485;49.386;8.674;2023-06-24T08:11:40;34.70;49.60
18712;DHT22;9485;49.386;8.674;2023-06-24T08:17:04;35.40;47.90
18712;DHT22;9485;49.386;8.674;2023-06-24T08:22:25;36.10;46.60
18712;DHT22;9485;49.386;8.674;2023-06-24T08:27:46;36.60;46.70
18712;DHT22;9485;49.386;8.674;2023-06-24T08:33:09;37.10;45.40
18712;DHT22;9485;49.386;8.674;2023-06-24T08:38:31;37.60;43.70
18712;DHT22;9485;49.386;8.674;2023-06-24T08:43:53;37.70;43.20
18712;DHT22;9485;49.386;8.674;2023-06-24T08:49:20;37.90;41.90
18712;DHT22;9485;49.386;8.674;2023-06-24T08:54:51;37.80;40.80
18712;DHT22;9485;49.386;8.674;2023-06-24T09:00:13;37.70;40.90
18712;DHT22;9485;49.386;8.674;2023-06-24T09:05:37;37.70;41.50
18712;DHT22;9485;49.386;8.674;2023-06-24T09:11:01;37.80;40.70
18712;DHT22;9485;49.386;8.674;2023-06-24T09:16:23;38.00;39.50
18712;DHT22;9485;49.386;8.674;2023-06-24T09:21:46;38.10;39.70
18712;DHT22;9485;49.386;8.674;2023-06-24T09:27:07;38.10;38.40
18712;DHT22;9485;49.386;8.674;2023-06-24T09:32:30;38.00;38.70
18712;DHT22;9485;49.386;8.674;2023-06-24T09:37:55;38.00;37.90
18712;DHT22;9485;49.386;8.674;2023-06-24T09:43:20;37.90;36.90
18712;DHT22;9485;49.386;8.674;2023-06-24T09:48:43;37.80;36.60
18712;DHT22;9485;49.386;8.674;2023-06-24T09:54:06;37.50;37.30
18712;DHT22;9485;49.386;8.674;2023-06-24T09:59:28;37.30;37.50
18712;DHT22;9485;49.386;8.674;2023-06-24T10:04:53;37.30;37.40
18712;DHT22;9485;49.386;8.674;2023-06-24T10:10:17;37.20;38.20
18712;DHT22;9485;49.386;8.674;2023-06-24T10:15:39;37.30;37.30
18712;DHT22;9485;49.386;8.674;2023-06-24T10:21:00;37.40;37.70
18712;DHT22;9485;49.386;8.674;2023-06-24T10:26:26;37.80;37.30
18712;DHT22;9485;49.386;8.674;2023-06-24T10:31:55;38.00;36.20
18712;DHT22;9485;49.386;8.674;2023-06-24T10:37:20;38.10;35.60
18712;DHT22;9485;49.386;8.674;2023-06-24T10:42:44;38.20;35.60
18712;DHT22;9485;49.386;8.674;2023-06-24T10:48:08;38.20;35.70
18712;DHT22;9485;49.386;8.674;2023-06-24T10:53:29;38.20;35.50
18712;DHT22;9485;49.386;8.674;2023-06-24T10:59:01;38.20;35.50
18712;DHT22;9485;49.386;8.674;2023-06-24T11:04:22;38.10;34.00
18712;DHT22;9485;49.386;8.674;2023-06-24T11:09:48;38.20;35.20
18712;DHT22;9485;49.386;8.674;2023-06-24T11:15:13;38.10;34.80
18712;DHT22;9485;49.386;8.674;2023-06-24T11:20:36;38.10;35.20
18712;DHT22;9485;49.386;8.674;2023-06-24T11:26:03;38.20;35.00
18712;DHT22;9485;49.386;8.674;2023-06-24T11:31:28;38.40;33.80
18712;DHT22;9485;49.386;8.674;2023-06-24T11:36:52;38.50;34.60
18712;DHT22;9485;49.386;8.674;2023-06-24T11:42:14;38.60;34.40
18712;DHT22;9485;49.386;8.674;2023-06-24T11:47:38;38.40;34.00
18712;DHT22;9485;49.386;8.674;2023-06-24T11:53:00;38.00;33.20
18712;DHT22;9485;49.386;8.674;2023-06-24T11:58:20;37.50;34.20
18712;DHT22;9485;49.386;8.674;2023-06-24T12:03:44;37.20;34.40
18712;DHT22;9485;49.386;8.674;2023-06-24T12:09:04;37.20;34.50
18712;DHT22;9485;49.386;8.674;2023-06-24T12:14:26;37.30;34.40
18712;DHT22;9485;49.386;8.674;2023-06-24T12:19:48;37.50;34.20
18712;DHT22;9485;49.386;8.674;2023-06-24T12:25:09;37.60;33.90
18712;DHT22;9485;49.386;8.674;2023-06-24T12:30:31;37.80;34.40
18712;DHT22;9485;49.386;8.674;2023-06-24T12:35:53;38.10;34.60
18712;DHT22;9485;49.386;8.674;2023-06-24T12:41:16;38.40;34.30
18712;DHT22;9485;49.386;8.674;2023-06-24T12:46:38;38.80;33.70
18712;DHT22;9485;49.386;8.674;2023-06-24T12:52:01;39.20;33.20
18712;DHT22;9485;49.386;8.674;2023-06-24T12:57:23;39.50;32.20
18712;DHT22;9485;49.386;8.674;2023-06-24T13:02:45;39.40;31.70
18712;DHT22;9485;49.386;8.674;2023-06-24T13:08:07;39.00;31.20
18712;DHT22;9485;49.386;8.674;2023-06-24T13:13:30;38.50;31.10
18712;DHT22;9485;49.386;8.674;2023-06-24T13:18:51;38.00;31.50
18712;DHT22;9485;49.386;8.674;2023-06-24T13:24:14;37.40;31.50
18712;DHT22;9485;49.386;8.674;2023-06-24T13:29:35;36.80;31.70
18712;DHT22;9485;49.386;8.674;2023-06-24T13:34:56;36.40;32.80
18712;DHT22;9485;49.386;8.674;2023-06-24T13:40:19;36.60;33.40
18712;DHT22;9485;49.386;8.674;2023-06-24T13:45:41;37.30;33.10
18712;DHT22;9485;49.386;8.674;2023-06-24T13:51:01;38.10;32.80
18712;DHT22;9485;49.386;8.674;2023-06-24T13:56:25;38.70;32.30
18712;DHT22;9485;49.386;8.674;2023-06-24T14:01:46;39.10;30.70
18712;DHT22;9485;49.386;8.674;2023-06-24T14:07:07;39.30;31.40
18712;DHT22;9485;49.386;8.674;2023-06-24T14:12:31;39.60;31.40
18712;DHT22;9485;49.386;8.674;2023-06-24T14:17:52;39.50;30.00
18712;DHT22;9485;49.386;8.674;2023-06-24T14:23:13;39.40;30.70
18712;DHT22;9485;49.386;8.674;2023-06-24T14:28:35;39.50;30.90
18712;DHT22;9485;49.386;8.674;2023-06-24T14:33:56;39.70;30.30
18712;DHT22;9485;49.386;8.674;2023-06-24T14:39:17;39.50;30.10
18712;DHT22;9485;49.386;8.674;2023-06-24T14:44:40;39.30;30.00
18712;DHT22;9485;49.386;8.674;2023-06-24T14:50:01;38.80;29.70
18712;DHT22;9485;49.386;8.674;2023-06-24T14:55:23;38.20;30.00
18712;DHT22;9485;49.386;8.674;2023-06-24T15:00:45;37.50;30.20
18712;DHT22;9485;49.386;8.674;2023-06-24T15:06:06;36.90;30.40
18712;DHT22;9485;49.386;8.674;2023-06-24T15:11:27;36.40;30.80
18712;DHT22;9485;49.386;8.674;2023-06-24T15:16:49;35.90;30.90
18712;DHT22;9485;49.386;8.674;2023-06-24T15:22:13;35.50;31.60
18712;DHT22;9485;49.386;8.674;2023-06-24T15:27:35;35.10;31.70
18712;DHT22;9485;49.386;8.674;2023-06-24T15:32:59;34.80;31.60
18712;DHT22;9485;49.386;8.674;2023-06-24T15:38:21;34.60;31.80
18712;DHT22;9485;49.386;8.674;2023-06-24T15:43:42;34.50;31.90
18712;DHT22;9485;49.386;8.674;2023-06-24T15:49:04;34.40;32.60
18712;DHT22;9485;49.386;8.674;2023-06-24T15:54:25;34.30;32.50
18712;DHT22;9485;49.386;8.674;2023-06-24T15:59:46;34.20;32.50
18712;DHT22;9485;49.386;8.674;2023-06-24T16:05:09;34.10;32.80
18712;DHT22;9485;49.386;8.674;2023-06-24T16:10:31;34.00;32.60
18712;DHT22;9485;49.386;8.674;2023-06-24T16:15:52;33.90;32.70
18712;DHT22;9485;49.386;8.674;2023-06-24T16:21:15;33.70;32.80
18712;DHT22;9485;49.386;8.674;2023-06-24T16:26:36;33.60;33.00
18712;DHT22;9485;49.386;8.674;2023-06-24T16:31:57;33.40;33.20
18712;DHT22;9485;49.386;8.674;2023-06-24T16:37:20;33.20;33.20
18712;DHT22;9485;49.386;8.674;2023-06-24T16:42:42;33.00;33.20
18712;DHT22;9485;49.386;8.674;2023-06-24T16:48:03;32.90;33.60
18712;DHT22;9485;49.386;8.674;2023-06-24T16:53:25;32.80;33.30
18712;DHT22;9485;49.386;8.674;2023-06-24T16:58:47;32.70;33.20
18712;DHT22;9485;49.386;8.674;2023-06-24T17:04:08;32.50;33.30
18712;DHT22;9485;49.386;8.674;2023-06-24T17:09:31;32.40;33.40
18712;DHT22;9485;49.386;8.674;2023-06-24T17:14:52;32.30;33.40
18712;DHT22;9485;49.386;8.674;2023-06-24T17:20:13;32.20;33.40
18712;DHT22;9485;49.386;8.674;2023-06-24T17:25:36;32.20;33.50
18712;DHT22;9485;49.386;8.674;2023-06-24T17:30:57;32.20;33.50
18712;DHT22;9485;49.386;8.674;2023-06-24T17:36:18;32.10;33.30
18712;DHT22;9485;49.386;8.674;2023-06-24T17:41:41;32.10;33.90
18712;DHT22;9485;49.386;8.674;2023-06-24T17:47:02;32.10;33.80
18712;DHT22;9485;49.386;8.674;2023-06-24T17:52:23;32.00;33.90
18712;DHT22;9485;49.386;8.674;2023-06-24T17:57:46;31.90;33.70
18712;DHT22;9485;49.386;8.674;2023-06-24T18:03:07;31.80;33.80
18712;DHT22;9485;49.386;8.674;2023-06-24T18:08:28;31.60;33.70
18712;DHT22;9485;49.386;8.674;2023-06-24T18:13:52;31.50;33.90
18712;DHT22;9485;49.386;8.674;2023-06-24T18:19:12;31.50;34.10
18712;DHT22;9485;49.386;8.674;2023-06-24T18:24:34;31.30;34.00
18712;DHT22;9485;49.386;8.674;2023-06-24T18:29:57;31.20;34.20
18712;DHT22;9485;49.386;8.674;2023-06-24T18:35:18;31.10;34.60
18712;DHT22;9485;49.386;8.674;2023-06-24T18:40:39;31.00;34.90
18712;DHT22;9485;49.386;8.674;2023-06-24T18:46:02;30.90;35.00
18712;DHT22;9485;49.386;8.674;2023-06-24T18:51:23;30.70;35.30
18712;DHT22;9485;49.386;8.674;2023-06-24T18:56:45;30.60;35.20
18712;DHT22;9485;49.386;8.674;2023-06-24T19:02:07;30.50;35.20
18712;DHT22;9485;49.386;8.674;2023-06-24T19:07:29;30.30;35.40
18712;DHT22;9485;49.386;8.674;2023-06-24T19:12:50;30.20;35.50
18712;DHT22;9485;49.386;8.674;2023-06-24T19:18:15;30.00;35.40
18712;DHT22;9485;49.386;8.674;2023-06-24T19:23:36;29.90;36.10
18712;DHT22;9485;49.386;8.674;2023-06-24T19:28:57;29.80;35.70
18712;DHT22;9485;49.386;8.674;2023-06-24T19:34:19;29.60;35.60
18712;DHT22;9485;49.386;8.674;2023-06-24T19:39:41;29.50;35.90
18712;DHT22;9485;49.386;8.674;2023-06-24T19:45:02;29.40;36.10
18712;DHT22;9485;49.386;8.674;2023-06-24T19:50:25;29.20;36.00
18712;DHT22;9485;49.386;8.674;2023-06-24T19:55:46;29.10;36.80
18712;DHT22;9485;49.386;8.674;2023-06-24T20:01:07;29.00;36.30
18712;DHT22;9485;49.386;8.674;2023-06-24T20:06:29;28.90;36.30
18712;DHT22;9485;49.386;8.674;2023-06-24T20:11:49;28.80;36.40
18712;DHT22;9485;49.386;8.674;2023-06-24T20:17:10;28.60;36.60
18712;DHT22;9485;49.386;8.674;2023-06-24T20:22:33;28.60;36.70
18712;DHT22;9485;49.386;8.674;2023-06-24T20:27:53;28.50;37.40
18712;DHT22;9485;49.386;8.674;2023-06-24T20:33:14;28.40;36.80
18712;DHT22;9485;49.386;8.674;2023-06-24T20:38:36;28.40;36.90
18712;DHT22;9485;49.386;8.674;2023-06-24T20:43:57;28.40;37.10
18712;DHT22;9485;49.386;8.674;2023-06-24T20:49:18;28.30;37.10
18712;DHT22;9485;49.386;8.674;2023-06-24T20:54:41;28.20;37.10
18712;DHT22;9485;49.386;8.674;2023-06-24T21:00:02;28.20;37.10
18712;DHT22;9485;49.386;8.674;2023-06-24T21:05:24;28.10;37.10
18712;DHT22;9485;49.386;8.674;2023-06-24T21:10:46;28.10;37.20
18712;DHT22;9485;49.386;8.674;2023-06-24T21:16:06;28.10;37.30
18712;DHT22;9485;49.386;8.674;2023-06-24T21:21:27;28.00;37.10
18712;DHT22;9485;49.386;8.674;2023-06-24T21:26:49;28.00;37.10
18712;DHT22;9485;49.386;8.674;2023-06-24T21:32:09;28.00;37.10
18712;DHT22;9485;49.386;8.674;2023-06-24T21:37:30;28.00;37.20
18712;DHT22;9485;49.386;8.674;2023-06-24T21:42:52;28.00;37.10
18712;DHT22;9485;49.386;8.674;2023-06-24T21:48:13;28.00;37.20
18712;DHT22;9485;49.386;8.674;2023-06-24T21:53:33;28.00;37.20
18712;DHT22;9485;49.386;8.674;2023-06-24T21:58:55;27.90;37.20
18712;DHT22;9485;49.386;8.674;2023-06-24T22:04:16;27.90;37.20
18712;DHT22;9485;49.386;8.674;2023-06-24T22:09:36;27.90;37.30
18712;DHT22;9485;49.386;8.674;2023-06-24T22:14:58;27.80;37.20
18712;DHT22;9485;49.386;8.674;2023-06-24T22:20:19;27.80;37.30
18712;DHT22;9485;49.386;8.674;2023-06-24T22:25:39;27.70;37.30
18712;DHT22;9485;49.386;8.674;2023-06-24T22:31:02;27.70;37.40
18712;DHT22;9485;49.386;8.674;2023-06-24T22:36:23;27.70;37.40
18712;DHT22;9485;49.386;8.674;2023-06-24T22:41:43;27.60;37.40
18712;DHT22;9485;49.386;8.674;2023-06-24T22:47:05;27.60;37.50
18712;DHT22;9485;49.386;8.674;2023-06-24T22:52:26;27.60;37.50
18712;DHT22;9485;49.386;8.674;2023-06-24T22:57:47;27.60;37.60
18712;DHT22;9485;49.386;8.674;2023-06-24T23:03:10;27.60;37.80
18712;DHT22;9485;49.386;8.674;2023-06-24T23:08:32;27.60;37.80
18712;DHT22;9485;49.386;8.674;2023-06-24T23:13:53;27.60;37.70
18712;DHT22;9485;49.386;8.674;2023-06-24T23:19:16;27.60;37.70
18712;DHT22;9485;49.386;8.674;2023-06-24T23:24:37;27.60;37.70
18712;DHT22;9485;49.386;8.674;2023-06-24T23:29:59;27.60;37.80
18712;DHT22;9485;49.386;8.674;2023-06-24T23:35:24;27.60;37.80
18712;DHT22;9485;49.386;8.674;2023-06-24T23:40:45;27.50;37.80
18712;DHT22;9485;49.386;8.674;2023-06-24T23:46:07;27.50;37.80
18712;DHT22;9485;49.386;8.674;2023-06-24T23:51:30;27.50;37.80
18712;DHT22;9485;49.386;8.674;2023-06-24T23:56:50;27.40;37.80
